Página principal
METAR-TAF:

METAR-TAF

Aeroportos :

Roi Et, Tailândia

latitude: 16-07-00N, longitude: 103-46-26E, altura: 138 m

Observação actual do tempo

O boletim foi feito há 1 hora e 4 minutos, às 04:00 UTC
Vento 5 kt de sul, variando entre es-sudeste e oes-sudoeste
Temperatura 31°C
Humidade 52%
Pressão 1014 hPa
Visibilidade: 7000 m

METAR: VTUV 230400Z 17005KT 110V240 7000 NSC 31/20 Q1014 NOSIG

Hora: 12:04 (05:04 UTC)

Previsão

O boletim foi feito há 6 horas e 4 minutos, às 23:00 UTC
Previsão válida de 23 às 00 UTC a 23 às 24 UTC
Vento 5 kt de sul
Visibilidade: 5000 m
neblina
Tornando-se
de 23 às 01 UTC a 23 às 03 UTC
Visibilidade: 8000 m

TAF: VTUV 222300Z 2300/2324 17005KT 5000 BR NSC BECMG 2301/2303 8000 NSW

Observações e previsões do tempo de mais de 4000 aeroportos (mensagens METAR e TAF).

As estações disponíveis são os pontos amarelos e vermelhos sobre o mapa.

Mova o rato sobre o mapa para ver o nome da estação.

Depois clique no ponto para visualizar as observações e previsões meteorológicas.

Para alterar o mapa : clique nos botões verdes com uma cruz preta para aumentar o zoom; no botão verde com uma pitada de zoom; ou nas setas verdes para mapas adjacentes.


METAR-TAF: